Time;durP1;ratioP1;P1;durP2;ratioP2;P2;SDS_P1;SDS_P2;PMS_P1;PMS_P2;Temp;Humidity;BMP_temperature;BMP_pressure;BME280_temperature;BME280_humidity;BME280_pressure;Samples;Min_cycle;Max_cycle;Signal;HPM_P1;HPM_P2
2023/03/13 00:01:34;;;;;;;39.65;9.38;;;;;;;5.69;84.79;100317.13;7393577;19;20017;-55
2023/03/13 00:03:59;;;;;;;31.50;9.60;;;;;;;5.69;84.63;100314.50;7393772;19;20007;-53
2023/03/13 00:06:27;;;;;;;32.85;8.82;;;;;;;5.73;84.86;100306.25;7391466;19;20099;-55
2023/03/13 00:08:54;;;;;;;34.65;8.98;;;;;;;5.75;84.71;100309.66;7391199;19;20019;-55
2023/03/13 00:11:19;;;;;;;32.70;8.27;;;;;;;5.71;84.85;100300.28;7393151;19;20022;-55
2023/03/13 00:13:45;;;;;;;37.25;8.80;;;;;;;5.75;84.95;100301.75;7390630;19;19998;-56
2023/03/13 00:16:13;;;;;;;34.60;9.30;;;;;;;5.76;84.54;100298.16;7389925;19;20003;-55
2023/03/13 00:18:47;;;;;;;34.67;8.40;;;;;;;5.78;84.57;100291.00;7392616;19;19999;-56
2023/03/13 00:21:13;;;;;;;33.90;8.25;;;;;;;5.80;84.85;100286.44;7393021;19;20104;-55
2023/03/13 00:23:38;;;;;;;37.85;8.60;;;;;;;5.82;84.63;100281.03;7392767;19;20451;-54
2023/03/13 00:26:06;;;;;;;33.08;9.02;;;;;;;5.81;84.71;100282.00;7389356;19;20021;-55
2023/03/13 00:28:34;;;;;;;33.05;7.97;;;;;;;5.81;84.59;100266.19;7392394;19;19998;-55
2023/03/13 00:31:14;;;;;;;32.05;8.88;;;;;;;5.83;84.77;100269.56;7390424;19;20015;-55
2023/03/13 00:33:41;;;;;;;35.03;7.85;;;;;;;5.81;84.58;100269.66;7390772;19;20446;-55
2023/03/13 00:36:10;;;;;;;36.33;8.57;;;;;;;5.82;84.82;100265.22;7390614;19;19998;-56
2023/03/13 00:38:36;;;;;;;34.45;8.30;;;;;;;5.82;84.49;100257.31;7391607;19;20024;-55
2023/03/13 00:41:06;;;;;;;31.88;7.72;;;;;;;5.81;84.58;100258.28;7386055;19;20050;-54
2023/03/13 00:43:34;;;;;;;37.80;8.85;;;;;;;5.79;84.78;100250.50;7392535;19;19998;-55
2023/03/13 00:46:00;;;;;;;26.77;8.75;;;;;;;5.82;84.85;100255.56;7388780;19;20006;-55
2023/03/13 00:48:26;;;;;;;32.22;8.15;;;;;;;5.85;84.51;100253.63;7391350;19;19998;-54
2023/03/13 00:50:52;;;;;;;33.35;8.23;;;;;;;5.86;84.67;100244.78;7392670;19;20017;-55
2023/03/13 00:53:18;;;;;;;31.92;7.55;;;;;;;5.88;84.57;100240.25;7391773;19;20462;-55
2023/03/13 00:55:58;;;;;;;29.67;7.72;;;;;;;5.89;84.68;100237.50;7391367;19;20001;-55
2023/03/13 00:58:26;;;;;;;32.00;7.07;;;;;;;5.91;84.38;100237.41;7389187;19;20002;-55
2023/03/13 01:00:52;;;;;;;34.60;8.23;;;;;;;5.90;84.40;100228.66;7389583;19;20003;-54
2023/03/13 01:03:19;;;;;;;35.05;8.32;;;;;;;5.90;84.52;100231.28;7389254;19;20003;-55
2023/03/13 01:05:44;;;;;;;32.80;8.13;;;;;;;5.92;84.22;100220.63;7390504;19;20335;-56
2023/03/13 01:08:10;;;;;;;30.45;7.25;;;;;;;5.92;84.63;100216.19;7390517;19;20068;-56
2023/03/13 01:10:35;;;;;;;29.08;6.80;;;;;;;5.93;84.69;100214.41;7386929;19;19999;-55
2023/03/13 01:13:03;;;;;;;31.95;7.78;;;;;;;5.90;84.47;100198.78;7389170;19;20380;-55
2023/03/13 01:15:29;;;;;;;30.67;8.38;;;;;;;5.90;84.37;100197.03;7388205;19;19995;-55
2023/03/13 01:17:55;;;;;;;34.25;7.53;;;;;;;5.94;84.70;100184.47;7389796;19;19998;-54
2023/03/13 01:20:20;;;;;;;34.47;7.60;;;;;;;5.98;84.46;100188.56;7384922;19;20032;-54
2023/03/13 01:22:46;;;;;;;31.60;6.93;;;;;;;5.98;84.61;100178.00;7391705;19;20086;-54
2023/03/13 01:25:11;;;;;;;33.17;7.25;;;;;;;5.98;84.66;100164.84;7390818;19;20011;-55
2023/03/13 01:27:37;;;;;;;34.70;7.60;;;;;;;6.00;84.89;100157.63;7389969;19;20018;-55
2023/03/13 01:30:03;;;;;;;34.38;6.68;;;;;;;6.01;84.91;100157.53;7388381;19;20462;-57
2023/03/13 01:32:31;;;;;;;25.75;6.63;;;;;;;6.02;84.93;100139.94;7388617;19;20070;-57
2023/03/13 01:35:04;;;;;;;29.13;6.43;;;;;;;6.01;85.19;100147.00;7390296;19;20326;-54
2023/03/13 01:37:35;;;;;;;33.13;7.32;;;;;;;5.96;85.49;100135.09;7387089;19;20017;-54
2023/03/13 01:40:01;;;;;;;39.03;7.70;;;;;;;5.95;85.61;100128.13;7388383;19;20041;-55
2023/03/13 01:42:26;;;;;;;25.67;6.47;;;;;;;5.94;85.74;100127.31;7390956;19;19998;-55
2023/03/13 01:44:54;;;;;;;35.47;6.80;;;;;;;5.94;85.60;100124.66;7389998;19;20397;-55
2023/03/13 01:47:20;;;;;;;37.20;7.00;;;;;;;5.95;85.75;100107.06;7388707;19;20013;-56
2023/03/13 01:49:47;;;;;;;32.28;6.80;;;;;;;5.94;86.17;100105.38;7390270;19;20012;-55
2023/03/13 01:52:19;;;;;;;27.63;6.55;;;;;;;5.98;85.93;100096.28;7393438;19;20012;-56
2023/03/13 01:55:15;;;;;;;25.58;7.00;;;;;;;5.99;85.95;100084.78;7397701;19;20002;-55
2023/03/13 01:57:49;;;;;;;34.20;6.57;;;;;;;5.97;85.79;100078.75;7394230;19;20058;-55
2023/03/13 02:00:29;;;;;;;31.05;6.22;;;;;;;5.97;86.27;100069.06;7393058;19;19998;-55
2023/03/13 02:03:01;;;;;;;36.03;6.78;;;;;;;5.99;85.88;100068.97;7397408;19;20028;-55
2023/03/13 02:05:29;;;;;;;34.67;6.75;;;;;;;5.99;85.98;100056.59;7397008;19;20008;-55
2023/03/13 02:08:00;;;;;;;27.55;5.82;;;;;;;5.98;86.08;100040.91;7397485;19;19998;-55
2023/03/13 02:10:25;;;;;;;29.83;6.20;;;;;;;5.99;85.89;100039.97;7397810;19;20071;-55
2023/03/13 02:12:52;;;;;;;25.88;6.30;;;;;;;5.98;85.87;100033.84;7395726;19;20002;-55
2023/03/13 02:15:20;;;;;;;30.33;6.65;;;;;;;5.99;86.03;100034.69;7396113;19;20025;-55
2023/03/13 02:17:46;;;;;;;32.85;6.30;;;;;;;6.02;85.95;100027.38;7393660;19;20025;-55
2023/03/13 02:20:14;;;;;;;29.83;6.60;;;;;;;6.00;85.95;100024.00;7392166;19;20083;-55
2023/03/13 02:22:55;;;;;;;36.80;6.80;;;;;;;6.01;86.42;100017.81;7396584;19;20011;-55
2023/03/13 02:25:23;;;;;;;28.67;6.45;;;;;;;5.98;86.15;100014.56;7395413;19;20048;-55
2023/03/13 02:28:04;;;;;;;34.55;6.30;;;;;;;6.01;86.29;100001.13;7394915;19;20013;-55
2023/03/13 02:30:30;;;;;;;31.13;7.35;;;;;;;6.00;86.33;99994.16;7395770;19;20006;-55
2023/03/13 02:32:56;;;;;;;29.95;7.63;;;;;;;6.02;86.58;99989.63;7396412;19;20011;-55
2023/03/13 02:35:22;;;;;;;29.15;6.28;;;;;;;5.99;86.56;99980.16;7395902;19;20015;-55
2023/03/13 02:37:58;;;;;;;29.45;6.20;;;;;;;6.02;86.51;99972.03;7394464;19;19998;-56
2023/03/13 02:40:29;;;;;;;27.33;6.75;;;;;;;6.04;86.64;99959.53;7391894;19;20022;-56
2023/03/13 02:42:55;;;;;;;25.40;6.40;;;;;;;6.05;86.42;99961.25;7396420;19;20062;-56
2023/03/13 02:45:21;;;;;;;26.67;6.18;;;;;;;6.09;86.48;99946.03;7395873;19;20062;-56
2023/03/13 02:47:47;;;;;;;27.13;6.03;;;;;;;6.08;86.83;99946.97;7391171;19;20450;-57
2023/03/13 02:50:14;;;;;;;30.13;6.40;;;;;;;6.05;86.63;99944.56;7394024;19;20005;-57
2023/03/13 02:53:02;;;;;;;34.13;6.88;;;;;;;6.07;86.75;99927.66;7394855;19;20423;-56
2023/03/13 02:55:33;;;;;;;27.90;5.85;;;;;;;6.02;86.87;99929.84;7394271;19;19998;-56
2023/03/13 02:57:58;;;;;;;26.15;6.53;;;;;;;6.05;87.23;99921.69;7395345;19;20127;-56
2023/03/13 03:00:25;;;;;;;24.02;6.13;;;;;;;6.08;87.37;99923.22;7392080;19;20002;-56
2023/03/13 03:02:55;;;;;;;33.33;7.15;;;;;;;6.12;87.12;99915.94;7393144;19;20065;-55
2023/03/13 03:05:21;;;;;;;28.88;6.63;;;;;;;6.10;87.37;99915.22;7394740;19;20003;-55
2023/03/13 03:07:47;;;;;;;33.50;6.03;;;;;;;6.11;87.84;99899.28;7391046;19;19999;-53
2023/03/13 03:10:14;;;;;;;25.05;5.63;;;;;;;6.14;87.36;99900.84;7395383;19;20011;-53
2023/03/13 03:12:39;;;;;;;29.48;6.47;;;;;;;6.10;87.53;99896.75;7393686;19;20063;-54
2023/03/13 03:15:05;;;;;;;27.33;6.32;;;;;;;6.10;87.86;99883.59;7394372;19;20003;-55
2023/03/13 03:17:31;;;;;;;31.30;6.40;;;;;;;6.11;87.66;99879.97;7393265;19;20034;-55
2023/03/13 03:19:56;;;;;;;32.13;6.45;;;;;;;6.13;87.84;99875.41;7390299;19;20343;-55
2023/03/13 03:22:22;;;;;;;26.35;5.95;;;;;;;6.11;88.09;99874.72;7395090;19;20014;-56
2023/03/13 03:24:47;;;;;;;32.53;6.35;;;;;;;6.14;88.06;99874.47;7393104;19;19998;-56
2023/03/13 03:27:13;;;;;;;28.77;6.60;;;;;;;6.11;88.04;99869.44;7393194;19;19999;-55
2023/03/13 03:29:39;;;;;;;29.90;6.40;;;;;;;6.13;88.35;99856.94;7392192;19;20007;-56
2023/03/13 03:32:04;;;;;;;29.77;7.20;;;;;;;6.13;88.49;99856.94;7392804;19;20025;-56
2023/03/13 03:34:30;;;;;;;26.27;6.30;;;;;;;6.11;88.27;99848.34;7392026;19;20009;-55
2023/03/13 03:36:55;;;;;;;26.63;5.88;;;;;;;6.12;88.28;99831.56;7392769;19;20015;-54
2023/03/13 03:39:21;;;;;;;27.38;5.30;;;;;;;6.14;88.63;99824.38;7393278;19;20006;-54
2023/03/13 03:41:47;;;;;;;33.50;6.75;;;;;;;6.16;88.39;99819.81;7393525;19;20001;-53
2023/03/13 03:44:12;;;;;;;33.67;6.72;;;;;;;6.09;89.22;99808.06;7392067;19;19991;-51
2023/03/13 03:46:38;;;;;;;27.75;5.50;;;;;;;6.12;89.28;99805.19;7385196;19;20014;-62
2023/03/13 03:49:03;;;;;;;24.88;6.25;;;;;;;6.12;89.44;99792.00;7392109;19;20069;-63
2023/03/13 03:51:29;;;;;;;27.70;6.70;;;;;;;6.10;89.82;99796.56;7397635;19;20498;-66
2023/03/13 03:53:54;;;;;;;26.00;6.50;;;;;;;6.10;89.79;99783.38;7392521;19;20066;-64
2023/03/13 03:56:20;;;;;;;38.40;6.63;;;;;;;6.10;89.75;99773.69;7391156;19;20002;-63
2023/03/13 03:58:45;;;;;;;27.63;5.88;;;;;;;6.09;89.86;99757.97;7390712;19;19994;-62
2023/03/13 04:01:11;;;;;;;25.77;6.07;;;;;;;6.10;89.98;99762.28;7392887;19;20002;-64
2023/03/13 04:03:36;;;;;;;22.55;5.93;;;;;;;6.10;90.19;99755.22;7392516;19;19994;-63
2023/03/13 04:06:02;;;;;;;29.52;5.93;;;;;;;6.09;90.20;99747.41;7391294;19;19995;-66
2023/03/13 04:08:27;;;;;;;29.63;6.47;;;;;;;6.12;90.21;99755.09;7393043;19;20019;-65
2023/03/13 04:10:53;;;;;;;27.02;6.35;;;;;;;6.14;90.42;99740.81;7391304;19;20013;-64
2023/03/13 04:13:18;;;;;;;29.08;6.68;;;;;;;6.17;90.26;99732.69;7390450;19;20360;-64
2023/03/13 04:15:44;;;;;;;24.27;5.50;;;;;;;6.13;90.31;99736.53;7389726;19;20350;-67
2023/03/13 04:18:09;;;;;;;23.65;5.82;;;;;;;6.12;90.37;99721.63;7392037;19;20007;-65
2023/03/13 04:20:35;;;;;;;25.20;6.22;;;;;;;6.14;90.54;99717.09;7392155;19;20002;-67
2023/03/13 04:23:01;;;;;;;27.00;6.97;;;;;;;6.10;91.01;99710.38;7392642;19;20342;-67
2023/03/13 04:25:27;;;;;;;21.45;5.47;;;;;;;6.13;90.82;99707.50;7391312;19;19994;-67
2023/03/13 04:27:52;;;;;;;24.10;5.60;;;;;;;6.18;90.76;99696.59;7390266;19;19999;-65
2023/03/13 04:30:18;;;;;;;29.30;6.70;;;;;;;6.20;91.05;99681.47;7392966;19;20108;-66
2023/03/13 04:32:44;;;;;;;23.52;5.72;;;;;;;6.21;91.17;99673.44;7390446;19;20009;-65
2023/03/13 04:35:09;;;;;;;27.55;6.22;;;;;;;6.21;91.14;99667.34;7390709;19;20532;-65
2023/03/13 04:37:35;;;;;;;22.40;6.25;;;;;;;6.25;91.02;99650.31;7390018;19;20570;-68
2023/03/13 04:40:00;;;;;;;20.85;6.32;;;;;;;6.24;91.00;99648.59;7390193;19;19999;-69
2023/03/13 04:42:26;;;;;;;28.35;7.28;;;;;;;6.26;91.08;99649.34;7391382;19;20516;-68
2023/03/13 04:44:52;;;;;;;24.17;6.00;;;;;;;6.29;91.15;99646.44;7389308;19;20410;-68
2023/03/13 04:47:18;;;;;;;21.27;6.22;;;;;;;6.30;91.25;99648.13;7389718;19;20450;-67
2023/03/13 04:49:43;;;;;;;26.95;6.43;;;;;;;6.27;91.45;99654.47;7391233;19;19990;-68
2023/03/13 04:52:09;;;;;;;22.92;5.85;;;;;;;6.31;91.49;99636.59;7391661;19;20275;-66
2023/03/13 04:54:35;;;;;;;19.80;5.32;;;;;;;6.34;91.53;99643.44;7390197;19;19998;-64
2023/03/13 04:57:00;;;;;;;20.90;5.80;;;;;;;6.36;91.50;99629.16;7386088;19;20468;-62
2023/03/13 04:59:26;;;;;;;18.88;5.65;;;;;;;6.39;91.77;99636.81;7386771;19;20493;-63
2023/03/13 05:01:51;;;;;;;24.08;5.22;;;;;;;6.40;91.73;99625.34;7387975;19;19991;-63
2023/03/13 05:04:17;;;;;;;14.65;4.90;;;;;;;6.45;91.45;99622.31;7389523;19;20002;-63
2023/03/13 05:06:42;;;;;;;18.40;4.72;;;;;;;6.45;91.58;99619.66;7389177;19;19995;-62
2023/03/13 05:09:08;;;;;;;17.98;5.72;;;;;;;6.47;91.92;99610.66;7390723;19;19998;-63
2023/03/13 05:11:33;;;;;;;20.00;5.20;;;;;;;6.51;91.93;99611.25;7391817;19;19995;-63
2023/03/13 05:13:59;;;;;;;18.73;5.35;;;;;;;6.53;91.98;99607.50;7390715;19;20006;-63
2023/03/13 05:16:24;;;;;;;13.18;4.53;;;;;;;6.54;91.78;99597.78;7388974;19;20511;-63
2023/03/13 05:18:50;;;;;;;14.52;4.53;;;;;;;6.55;91.98;99599.47;7389880;19;20359;-63
2023/03/13 05:21:16;;;;;;;14.63;4.82;;;;;;;6.59;92.07;99589.50;7388931;19;19995;-62
2023/03/13 05:23:41;;;;;;;15.38;4.38;;;;;;;6.58;92.16;99582.53;7390399;19;20014;-62
2023/03/13 05:26:07;;;;;;;14.45;4.70;;;;;;;6.60;92.48;99584.09;7388809;19;20006;-63
2023/03/13 05:28:32;;;;;;;14.60;4.25;;;;;;;6.63;92.29;99586.47;7396285;19;20058;-63
2023/03/13 05:30:58;;;;;;;15.68;5.00;;;;;;;6.62;92.69;99563.66;7398025;19;20006;-62
2023/03/13 05:33:23;;;;;;;12.43;4.25;;;;;;;6.65;92.90;99568.69;7397745;19;20003;-63
2023/03/13 05:35:49;;;;;;;12.88;4.43;;;;;;;6.65;92.86;99558.13;7395914;19;19991;-63
2023/03/13 05:38:14;;;;;;;12.48;4.78;;;;;;;6.67;93.24;99544.81;7396554;19;20458;-63
2023/03/13 05:40:40;;;;;;;12.10;4.43;;;;;;;6.71;92.69;99540.94;7397244;19;19995;-62
2023/03/13 05:43:06;;;;;;;13.25;4.88;;;;;;;6.73;93.04;99544.28;7397523;19;20002;-63
2023/03/13 05:45:32;;;;;;;10.85;4.18;;;;;;;6.75;92.83;99543.19;7395383;19;20002;-62
2023/03/13 05:48:00;;;;;;;11.73;4.28;;;;;;;6.79;93.06;99555.16;7395698;19;20010;-64
2023/03/13 05:50:26;;;;;;;9.85;4.50;;;;;;;6.79;93.16;99541.97;7395079;19;19999;-62
2023/03/13 05:52:51;;;;;;;12.85;4.30;;;;;;;6.81;93.26;99539.19;7398020;19;19998;-62
2023/03/13 05:55:18;;;;;;;10.02;4.18;;;;;;;6.86;93.55;99530.88;7395677;19;19999;-63
2023/03/13 05:57:45;;;;;;;10.35;4.30;;;;;;;6.91;93.61;99524.22;7397436;19;19994;-66
2023/03/13 06:00:12;;;;;;;7.97;4.15;;;;;;;6.93;93.17;99519.66;7395407;19;19995;-67
2023/03/13 06:02:37;;;;;;;10.63;4.72;;;;;;;6.98;93.49;99513.97;7396822;19;20415;-67
2023/03/13 06:05:03;;;;;;;10.02;4.85;;;;;;;7.02;93.15;99505.66;7395603;19;19994;-68
2023/03/13 06:07:28;;;;;;;12.60;4.65;;;;;;;7.04;93.38;99505.50;7396865;19;19987;-67
2023/03/13 06:09:54;;;;;;;11.30;4.68;;;;;;;7.08;93.20;99501.66;7397056;19;20062;-67
2023/03/13 06:12:19;;;;;;;11.55;5.05;;;;;;;7.12;93.58;99491.63;7396595;19;20115;-67
2023/03/13 06:14:45;;;;;;;11.45;5.05;;;;;;;7.14;93.38;99479.97;7393609;19;19995;-67
2023/03/13 06:17:10;;;;;;;10.02;5.03;;;;;;;7.15;93.60;99484.28;7393646;19;20010;-67
2023/03/13 06:19:36;;;;;;;10.32;5.20;;;;;;;7.17;93.52;99479.69;7394138;19;20002;-67
2023/03/13 06:22:01;;;;;;;11.07;5.60;;;;;;;7.19;93.82;99482.19;7397139;19;20358;-66
2023/03/13 06:24:27;;;;;;;13.75;5.32;;;;;;;7.21;93.87;99474.97;7396362;19;20510;-66
2023/03/13 06:26:52;;;;;;;12.32;6.00;;;;;;;7.23;93.82;99478.31;7393934;19;20018;-67
2023/03/13 06:29:18;;;;;;;11.15;5.43;;;;;;;7.24;94.17;99480.84;7396045;19;20023;-66
2023/03/13 06:31:43;;;;;;;11.05;5.72;;;;;;;7.28;94.05;99479.59;7396153;19;20332;-67
2023/03/13 06:34:12;;;;;;;10.95;6.20;;;;;;;7.33;93.56;99479.16;7396023;19;19990;-68
2023/03/13 06:36:38;;;;;;;16.27;6.25;;;;;;;7.35;93.97;99477.25;7393643;19;19999;-68
2023/03/13 06:39:04;;;;;;;10.75;5.68;;;;;;;7.38;93.92;99471.66;7393296;19;19990;-67
2023/03/13 06:41:29;;;;;;;12.55;6.20;;;;;;;7.39;94.43;99459.31;7395774;19;20004;-66
2023/03/13 06:43:55;;;;;;;12.15;6.43;;;;;;;7.43;94.07;99464.19;7395449;19;19999;-67
2023/03/13 06:46:23;;;;;;;11.43;6.18;;;;;;;7.48;94.14;99469.88;7392789;19;20499;-69
2023/03/13 06:48:49;;;;;;;12.60;7.00;;;;;;;7.51;94.33;99461.69;7395604;19;20401;-68
2023/03/13 06:51:18;;;;;;;12.13;7.03;;;;;;;7.54;94.31;99457.94;7393382;19;20600;-67
2023/03/13 06:53:43;;;;;;;13.25;7.07;;;;;;;7.59;94.41;99453.06;7395065;19;20001;-64
2023/03/13 06:56:09;;;;;;;14.15;6.85;;;;;;;7.62;94.25;99457.25;7391107;19;20409;-64
2023/03/13 06:58:35;;;;;;;11.18;6.88;;;;;;;7.67;94.18;99439.13;7395522;19;20077;-64
2023/03/13 07:01:11;;;;;;;12.85;7.13;;;;;;;7.73;93.90;99446.53;7395584;19;20541;-64
2023/03/13 07:03:37;;;;;;;14.77;7.47;;;;;;;7.76;94.53;99439.13;7395007;19;19999;-64
2023/03/13 07:06:04;;;;;;;13.73;7.90;;;;;;;7.81;94.32;99445.81;7392849;19;19999;-65
2023/03/13 07:08:31;;;;;;;12.70;7.47;;;;;;;7.87;94.39;99445.25;7395725;19;20011;-63
2023/03/13 07:11:06;;;;;;;12.07;6.85;;;;;;;7.93;93.95;99448.16;7394654;19;20027;-64
2023/03/13 07:13:31;;;;;;;17.83;8.10;;;;;;;7.96;94.22;99444.41;7394462;19;20002;-64
2023/03/13 07:16:03;;;;;;;15.40;7.38;;;;;;;8.07;93.97;99436.28;7393328;19;20062;-63
2023/03/13 07:18:29;;;;;;;13.30;7.45;;;;;;;8.09;93.68;99428.22;7394710;19;19998;-64
2023/03/13 07:20:57;;;;;;;12.80;6.82;;;;;;;8.10;93.84;99441.31;7393256;19;19999;-63
2023/03/13 07:23:23;;;;;;;12.73;6.93;;;;;;;8.17;93.80;99433.63;7393064;19;20026;-64
2023/03/13 07:26:06;;;;;;;11.43;5.97;;;;;;;8.18;93.91;99436.13;7392544;19;20003;-63
2023/03/13 07:28:32;;;;;;;12.68;6.30;;;;;;;8.21;94.17;99432.38;7394453;19;20014;-64
2023/03/13 07:31:15;;;;;;;10.13;6.40;;;;;;;8.26;94.14;99446.03;7394260;19;20406;-64
2023/03/13 07:33:41;;;;;;;12.15;6.40;;;;;;;8.34;93.80;99440.00;7393577;19;20462;-64
2023/03/13 07:36:08;;;;;;;10.93;6.03;;;;;;;8.38;93.32;99444.03;7390645;19;20009;-63
2023/03/13 07:38:34;;;;;;;11.82;6.03;;;;;;;8.41;93.56;99449.06;7393917;19;20006;-63
2023/03/13 07:41:00;;;;;;;11.95;5.78;;;;;;;8.41;93.79;99434.00;7393841;19;20029;-62
2023/03/13 07:43:26;;;;;;;11.02;5.43;;;;;;;8.47;93.75;99435.25;7392135;19;20336;-63
2023/03/13 07:46:03;;;;;;;12.30;5.97;;;;;;;8.54;93.79;99422.28;7389667;19;20002;-64
2023/03/13 07:48:31;;;;;;;10.23;5.38;;;;;;;8.63;93.38;99429.34;7393817;19;19998;-63
2023/03/13 07:50:57;;;;;;;11.40;5.35;;;;;;;8.68;93.41;99440.31;7389489;19;20014;-64
2023/03/13 07:53:24;;;;;;;9.68;4.75;;;;;;;8.72;93.19;99433.75;7393409;19;20006;-64
2023/03/13 07:55:57;;;;;;;11.38;5.20;;;;;;;8.77;93.21;99438.63;7391762;19;20002;-64
2023/03/13 07:58:24;;;;;;;10.77;5.38;;;;;;;8.76;93.16;99437.78;7393695;19;19999;-63
2023/03/13 08:00:52;;;;;;;13.70;5.43;;;;;;;8.80;93.20;99441.81;7392954;19;20034;-64
2023/03/13 08:03:17;;;;;;;9.85;5.10;;;;;;;8.87;92.97;99434.91;7393131;19;20026;-64
2023/03/13 08:05:43;;;;;;;9.63;5.30;;;;;;;8.95;92.72;99431.53;7391805;19;20003;-64
2023/03/13 08:08:09;;;;;;;11.10;5.68;;;;;;;9.01;92.41;99423.00;7392599;19;20467;-64
2023/03/13 08:10:34;;;;;;;15.07;5.38;;;;;;;9.04;92.13;99417.41;7392929;19;20005;-72
2023/03/13 08:13:00;;;;;;;9.50;5.20;;;;;;;9.09;91.76;99416.97;7392446;19;20035;-70
2023/03/13 08:15:27;;;;;;;13.80;6.32;;;;;;;9.09;91.67;99417.78;7390898;19;20017;-66
2023/03/13 08:17:54;;;;;;;14.75;5.53;;;;;;;9.11;91.41;99423.78;7390690;19;20005;-65
2023/03/13 08:20:19;;;;;;;14.20;6.13;;;;;;;9.16;91.49;99415.38;7391015;19;19998;-65
2023/03/13 08:22:45;;;;;;;14.75;6.22;;;;;;;9.13;91.70;99411.19;7391810;19;20331;-65
2023/03/13 08:25:12;;;;;;;11.60;6.43;;;;;;;9.12;91.73;99403.41;7389478;19;20002;-64
2023/03/13 08:27:37;;;;;;;13.27;6.20;;;;;;;9.13;91.83;99407.72;7392957;19;20125;-64
2023/03/13 08:30:03;;;;;;;12.20;6.38;;;;;;;9.11;91.62;99405.25;7391097;19;20327;-64
2023/03/13 08:32:32;;;;;;;15.18;6.50;;;;;;;9.13;91.73;99413.84;7391989;19;20030;-64
2023/03/13 08:34:57;;;;;;;13.90;6.05;;;;;;;9.07;92.25;99408.34;7390888;19;20002;-68
2023/03/13 08:37:23;;;;;;;14.90;7.03;;;;;;;9.11;92.25;99415.84;7392301;19;20022;-69
2023/03/13 08:39:48;;;;;;;19.83;6.68;;;;;;;9.13;92.12;99403.25;7390416;19;20003;-70
2023/03/13 08:42:14;;;;;;;13.15;6.32;;;;;;;9.17;91.64;99412.56;7391917;19;19999;-70
2023/03/13 08:44:40;;;;;;;12.70;6.68;;;;;;;9.14;92.01;99412.03;7391319;19;20037;-69
2023/03/13 08:47:06;;;;;;;13.07;6.53;;;;;;;9.14;91.86;99404.09;7389297;19;20034;-70
2023/03/13 08:49:32;;;;;;;13.38;6.65;;;;;;;9.17;91.53;99401.13;7392695;19;20014;-69
2023/03/13 08:51:57;;;;;;;14.40;7.30;;;;;;;9.19;91.33;99405.31;7390694;19;19998;-64
2023/03/13 08:54:23;;;;;;;13.98;5.68;;;;;;;9.27;91.09;99407.22;7390976;19;20002;-64
2023/03/13 08:56:48;;;;;;;16.50;7.05;;;;;;;9.31;90.78;99408.56;7387911;19;19995;-64
2023/03/13 08:59:14;;;;;;;10.90;5.78;;;;;;;9.41;90.00;99416.47;7389867;19;20057;-64
2023/03/13 09:01:40;;;;;;;14.25;5.47;;;;;;;9.43;89.83;99409.19;7390097;19;20414;-63
2023/03/13 09:04:07;;;;;;;14.10;5.72;;;;;;;9.53;89.63;99409.94;7390897;19;20011;-65
2023/03/13 09:06:34;;;;;;;12.60;5.30;;;;;;;9.54;89.66;99419.56;7389701;19;20040;-64
2023/03/13 09:08:59;;;;;;;11.75;5.60;;;;;;;9.56;89.57;99420.25;7391629;19;20459;-64
2023/03/13 09:11:25;;;;;;;13.05;6.05;;;;;;;9.61;89.46;99415.31;7391429;19;19994;-64
2023/03/13 09:13:51;;;;;;;17.10;5.72;;;;;;;9.67;89.65;99412.03;7390975;19;20007;-64
2023/03/13 09:16:21;;;;;;;12.98;6.10;;;;;;;9.75;89.47;99416.56;7389244;19;20009;-64
2023/03/13 09:18:48;;;;;;;11.90;5.60;;;;;;;9.81;89.59;99417.78;7391007;19;19998;-64
2023/03/13 09:21:29;;;;;;;13.40;6.03;;;;;;;9.83;89.36;99419.34;7389216;19;19998;-64
2023/03/13 09:23:55;;;;;;;13.32;6.00;;;;;;;9.83;89.63;99422.00;7390314;19;20405;-64
2023/03/13 09:26:21;;;;;;;14.15;6.07;;;;;;;9.77;90.43;99425.22;7389486;19;19994;-67
2023/03/13 09:28:47;;;;;;;13.68;5.93;;;;;;;9.68;90.73;99397.81;7388652;19;20392;-65
2023/03/13 09:31:14;;;;;;;15.40;5.90;;;;;;;9.61;91.04;99417.13;7391002;19;19999;-65
2023/03/13 09:33:41;;;;;;;11.95;5.72;;;;;;;9.56;91.59;99414.09;7389884;19;19990;-65
2023/03/13 09:36:08;;;;;;;10.70;5.63;;;;;;;9.53;91.73;99411.75;7387964;19;20002;-65
2023/03/13 09:38:34;;;;;;;13.73;5.95;;;;;;;9.56;91.34;99419.38;7390514;19;20002;-65
2023/03/13 09:41:24;;;;;;;11.32;5.57;;;;;;;9.60;91.41;99415.44;7390315;19;20007;-65
2023/03/13 09:43:53;;;;;;;11.38;5.13;;;;;;;9.73;90.77;99428.34;7388996;19;20077;-70
2023/03/13 09:46:31;;;;;;;10.60;4.65;;;;;;;9.91;89.73;99431.84;7386462;19;20014;-70
2023/03/13 09:49:01;;;;;;;11.10;4.18;;;;;;;9.99;88.98;99426.59;7389201;19;20466;-68
2023/03/13 09:51:35;;;;;;;9.70;4.32;;;;;;;10.06;88.57;99405.56;7387314;19;20026;-69
2023/03/13 09:54:08;;;;;;;10.00;4.22;;;;;;;10.18;88.26;99418.41;7388987;19;20105;-69
2023/03/13 09:56:44;;;;;;;12.48;4.07;;;;;;;10.34;87.59;99404.41;7388350;19;20007;-69
2023/03/13 09:59:18;;;;;;;11.35;4.20;;;;;;;10.56;86.47;99415.47;7387873;19;20364;-68
2023/03/13 10:01:45;;;;;;;;;;;;;;;10.72;85.37;99399.59;7390314;19;20111;-71
2023/03/13 10:04:34;;;;;;;10.57;3.92;;;;;;;10.90;85.02;99404.81;7389539;19;19930;-70
2023/03/13 10:07:01;;;;;;;9.10;3.55;;;;;;;10.96;84.05;99398.00;7387876;19;20063;-70
2023/03/13 10:09:32;;;;;;;6.47;2.83;;;;;;;11.31;82.69;99395.13;7390407;19;20007;-70
2023/03/13 10:12:13;;;;;;;6.53;2.85;;;;;;;11.49;81.66;99394.97;7387157;19;19998;-70
2023/03/13 10:14:44;;;;;;;8.02;2.95;;;;;;;11.43;81.93;99403.59;7395649;19;20050;-71
2023/03/13 10:17:14;;;;;;;7.50;2.70;;;;;;;11.44;81.42;99396.50;7393278;19;20020;-71
2023/03/13 10:19:42;;;;;;;9.73;2.30;;;;;;;11.32;81.77;99383.50;7395652;19;20006;-69
2023/03/13 10:22:34;;;;;;;6.97;2.67;;;;;;;11.14;81.79;99396.06;7394113;19;19995;-70
2023/03/13 10:25:18;;;;;;;7.35;2.60;;;;;;;11.11;81.76;99383.94;7392760;19;20010;-70
2023/03/13 10:27:50;;;;;;;6.50;2.50;;;;;;;11.17;81.84;99379.81;7396525;19;20340;-70
2023/03/13 10:30:34;;;;;;;8.43;2.40;;;;;;;11.23;80.54;99388.94;7396390;19;20006;-69
2023/03/13 10:33:05;;;;;;;7.50;2.40;;;;;;;11.12;81.14;99384.75;7395752;19;20012;-69
2023/03/13 10:35:37;;;;;;;10.82;2.83;;;;;;;11.12;81.16;99377.59;7392204;19;20472;-68
2023/03/13 10:38:20;;;;;;;7.38;2.20;;;;;;;11.14;80.64;99380.94;7396900;19;20163;-70
2023/03/13 10:41:09;;;;;;;9.10;2.53;;;;;;;11.21;80.08;99381.13;7393094;19;20468;-69
2023/03/13 10:43:34;;;;;;;5.65;2.30;;;;;;;11.14;80.63;99382.78;7396898;19;19998;-70
2023/03/13 10:46:02;;;;;;;5.72;2.28;;;;;;;11.00;81.34;99394.03;7393506;19;20090;-70
2023/03/13 10:48:36;;;;;;;7.38;2.58;;;;;;;11.07;81.37;99384.44;7393749;19;20007;-69
2023/03/13 10:51:01;;;;;;;;;;;;;;;11.11;81.65;99393.72;7395183;19;20014;-70
2023/03/13 10:53:30;;;;;;;8.20;2.42;;;;;;;11.30;81.21;99396.13;7395290;19;19911;-70
2023/03/13 10:56:12;;;;;;;4.28;2.17;;;;;;;11.49;80.20;99383.50;7393595;19;19999;-69
2023/03/13 10:58:45;;;;;;;10.23;2.63;;;;;;;11.48;80.27;99379.19;7396020;19;20010;-69
2023/03/13 11:01:28;;;;;;;7.03;2.08;;;;;;;11.59;78.80;99376.22;7393591;19;20010;-69
2023/03/13 11:04:19;;;;;;;7.38;2.10;;;;;;;11.58;78.91;99390.50;7395226;19;19999;-68
2023/03/13 11:06:53;;;;;;;3.95;2.10;;;;;;;11.47;78.79;99369.53;7392273;19;20014;-68
2023/03/13 11:09:19;;;;;;;6.50;2.10;;;;;;;11.42;79.64;99383.34;7394815;19;20006;-68
2023/03/13 11:11:51;;;;;;;7.90;2.50;;;;;;;11.35;79.82;99367.19;7394775;19;20461;-65
2023/03/13 11:14:20;;;;;;;9.27;2.50;;;;;;;11.31;80.20;99360.56;7394699;19;20006;-67
2023/03/13 11:16:54;;;;;;;7.55;2.45;;;;;;;11.28;80.15;99360.06;7392491;19;20126;-66
2023/03/13 11:19:29;;;;;;;4.72;2.10;;;;;;;11.21;80.21;99362.53;7393381;19;19995;-67
2023/03/13 11:22:10;;;;;;;8.43;2.35;;;;;;;11.22;80.54;99360.69;7395267;19;19999;-68
2023/03/13 11:25:12;;;;;;;10.23;2.25;;;;;;;11.45;79.17;99351.09;7394234;19;20232;-69
2023/03/13 11:27:44;;;;;;;9.05;2.30;;;;;;;11.72;77.82;99355.25;7393921;19;20002;-67
2023/03/13 11:30:37;;;;;;;4.78;1.95;;;;;;;11.71;76.52;99356.25;7394824;19;20107;-66
2023/03/13 11:33:09;;;;;;;6.75;1.90;;;;;;;11.85;75.79;99350.25;7394506;19;19999;-67
2023/03/13 11:35:52;;;;;;;4.68;1.80;;;;;;;12.29;73.88;99349.78;7393360;19;19998;-68
2023/03/13 11:38:27;;;;;;;6.57;2.08;;;;;;;12.29;73.54;99355.13;7392260;19;20006;-67